Hooper Bay, Alaska
Current Conditions -  °F | °C
As of 4:16 PM on Saturday 22 Nov 2014 (Local Time) from PAHP Reporting Station
Clear Clear  
Wind Chill:   Ceiling: Unl
Heat Index: 18°   Visibility: 10mi
Dew Point:   Wind: 14mph
Humidity: 68%   Direction: 60°ENE
Pressure: 29.24"   Gusts: NA
Location:  61.53°N, 166.1°W
Report Text: PAHP 230116Z AUTO 06012KT 10SM CLR M08/M13 A2924 RMK AO1
Loading
Personal Weather Stations






























Interactive Weather Map New forecast layout! Learn more

10-Day Weather Forecast

Advertisements
Track Severe Weather on mobile